Time;durP1;ratioP1;P1;durP2;ratioP2;P2;SDS_P1;SDS_P2;PMS_P1;PMS_P2;Temp;Humidity;BMP_temperature;BMP_pressure;BME280_temperature;BME280_humidity;BME280_pressure;Samples;Min_cycle;Max_cycle;Signal;HPM_P1;HPM_P2
2021/10/07 00:00:05;;;;;;;1.37;1.27;;;12.20;99.90;;;;;;5089255;28;20481;-85
2021/10/07 00:02:32;;;;;;;2.20;1.77;;;12.20;99.90;;;;;;5080533;28;20485;-86
2021/10/07 00:04:58;;;;;;;3.47;1.27;;;12.20;99.90;;;;;;5083567;28;20467;-87
2021/10/07 00:07:25;;;;;;;2.60;1.43;;;12.20;99.90;;;;;;5081916;28;20440;-86
2021/10/07 00:09:52;;;;;;;1.60;1.30;;;12.30;99.90;;;;;;5081567;28;20443;-87
2021/10/07 00:12:20;;;;;;;2.17;1.77;;;12.30;99.90;;;;;;5081887;28;20448;-86
2021/10/07 00:14:47;;;;;;;3.33;1.43;;;12.30;99.90;;;;;;5078356;28;20464;-85
2021/10/07 00:17:14;;;;;;;1.77;1.47;;;12.30;99.90;;;;;;5076425;28;20455;-86
2021/10/07 00:19:40;;;;;;;2.60;1.63;;;12.20;99.90;;;;;;5077003;28;20452;-86
2021/10/07 00:22:07;;;;;;;3.03;1.37;;;12.20;99.90;;;;;;5077300;28;20475;-86
2021/10/07 00:24:33;;;;;;;1.80;1.70;;;12.20;99.90;;;;;;5082059;28;20464;-86
2021/10/07 00:27:01;;;;;;;2.13;1.50;;;12.20;99.90;;;;;;5093672;28;20491;-87
2021/10/07 00:29:39;;;;;;;1.73;1.43;;;12.20;99.90;;;;;;5082398;28;20437;-84
2021/10/07 00:32:09;;;;;;;1.90;1.40;;;12.30;99.90;;;;;;5093531;28;20443;-86
2021/10/07 00:37:25;;;;;;;3.10;1.70;;;12.30;99.90;;;;;;5067529;28;20469;-86
2021/10/07 00:39:51;;;;;;;1.87;1.67;;;12.30;99.90;;;;;;5075891;28;20516;-85
2021/10/07 00:42:19;;;;;;;3.37;3.07;;;12.40;99.90;;;;;;5092069;28;20509;-88
2021/10/07 00:44:47;;;;;;;5.30;1.90;;;12.40;99.90;;;;;;5080578;28;20467;-86
2021/10/07 00:47:16;;;;;;;2.50;1.70;;;12.50;99.90;;;;;;5083704;28;20454;-86
2021/10/07 00:49:44;;;;;;;3.43;1.60;;;12.40;99.90;;;;;;5095478;28;20443;-86
2021/10/07 00:52:13;;;;;;;4.30;2.67;;;12.40;99.90;;;;;;5094766;28;20474;-86
2021/10/07 00:54:40;;;;;;;5.23;2.53;;;12.40;99.90;;;;;;5093636;28;20492;-86
2021/10/07 00:57:08;;;;;;;2.80;2.13;;;12.40;99.90;;;;;;5096385;28;20431;-86
2021/10/07 00:59:35;;;;;;;5.80;2.77;;;12.40;99.90;;;;;;5085226;28;20444;-86
2021/10/07 01:02:05;;;;;;;3.60;2.43;;;12.40;99.90;;;;;;5084037;28;20437;-86
2021/10/07 01:04:32;;;;;;;4.17;2.23;;;12.40;99.90;;;;;;5089771;28;20439;-86
2021/10/07 01:06:59;;;;;;;4.33;2.03;;;12.40;99.90;;;;;;5076339;28;20459;-86
2021/10/07 01:09:28;;;;;;;2.40;1.93;;;12.40;99.90;;;;;;5074819;28;20440;-86
2021/10/07 01:11:55;;;;;;;4.90;2.13;;;12.40;99.90;;;;;;5074801;28;20443;-86
2021/10/07 01:14:44;;;;;;;4.10;2.17;;;12.40;99.90;;;;;;5076807;28;20450;-86
2021/10/07 01:17:12;;;;;;;4.53;2.60;;;12.40;99.90;;;;;;5076036;28;20441;-86
2021/10/07 01:19:41;;;;;;;6.87;2.53;;;12.40;99.90;;;;;;5075251;28;20445;-86
2021/10/07 01:22:08;;;;;;;5.47;2.40;;;12.40;99.90;;;;;;5081248;28;20453;-86
2021/10/07 01:24:34;;;;;;;5.30;2.80;;;12.30;99.90;;;;;;5075649;28;21014;-86
2021/10/07 01:27:01;;;;;;;4.10;3.40;;;12.30;99.90;;;;;;5077053;28;20988;-86
2021/10/07 01:29:28;;;;;;;4.80;2.57;;;12.30;99.90;;;;;;5078638;28;20448;-85
2021/10/07 01:31:55;;;;;;;6.23;2.93;;;12.30;99.90;;;;;;5084085;28;20459;-86
2021/10/07 01:34:22;;;;;;;4.77;3.30;;;12.40;99.90;;;;;;5089886;28;20438;-85
2021/10/07 01:36:51;;;;;;;5.87;2.87;;;12.40;99.90;;;;;;5087074;28;20504;-85
2021/10/07 01:39:18;;;;;;;4.03;2.70;;;12.30;99.90;;;;;;5079339;28;20449;-86
2021/10/07 01:41:45;;;;;;;4.23;2.30;;;12.40;99.90;;;;;;5079297;28;20940;-86
2021/10/07 01:44:12;;;;;;;3.10;2.77;;;12.40;99.90;;;;;;5078421;28;21011;-86
2021/10/07 01:46:38;;;;;;;2.53;2.07;;;12.40;99.90;;;;;;5079033;28;20475;-85
2021/10/07 01:49:07;;;;;;;3.30;2.27;;;12.40;99.90;;;;;;5088771;28;20436;-87
2021/10/07 01:51:34;;;;;;;3.33;2.60;;;12.30;99.90;;;;;;5079962;28;20500;-86
2021/10/07 01:54:02;;;;;;;2.57;2.07;;;12.40;99.90;;;;;;5078661;28;20482;-86
2021/10/07 01:56:29;;;;;;;2.77;2.33;;;12.30;99.90;;;;;;5077638;28;20524;-85
2021/10/07 01:58:56;;;;;;;4.73;2.00;;;12.40;99.90;;;;;;5077532;28;20443;-86
2021/10/07 02:01:23;;;;;;;3.13;1.97;;;12.40;99.90;;;;;;5078121;28;20501;-85
2021/10/07 02:03:50;;;;;;;3.40;1.77;;;12.30;99.90;;;;;;5078122;28;20700;-86
2021/10/07 02:06:17;;;;;;;2.47;2.10;;;12.30;99.90;;;;;;5078645;28;20467;-85
2021/10/07 02:08:43;;;;;;;2.27;2.00;;;12.30;99.90;;;;;;5079982;28;20448;-86
2021/10/07 02:11:12;;;;;;;3.83;2.60;;;12.40;99.90;;;;;;5079023;28;20448;-87
2021/10/07 02:13:39;;;;;;;3.10;2.17;;;12.30;99.90;;;;;;5078100;28;20449;-86
2021/10/07 02:16:05;;;;;;;5.10;3.10;;;12.40;99.90;;;;;;5077023;28;20467;-87
2021/10/07 02:18:33;;;;;;;3.50;2.27;;;12.40;99.90;;;;;;5078200;28;20504;-86
2021/10/07 02:21:02;;;;;;;5.53;2.90;;;12.40;99.90;;;;;;5078136;28;20456;-85
2021/10/07 02:23:29;;;;;;;3.60;2.90;;;12.40;99.90;;;;;;5077573;28;20482;-85
2021/10/07 02:25:56;;;;;;;7.50;2.40;;;12.40;99.90;;;;;;5096435;28;20447;-87
2021/10/07 02:28:24;;;;;;;4.60;2.83;;;12.40;99.90;;;;;;5094188;28;20447;-86
2021/10/07 02:30:53;;;;;;;3.00;2.30;;;12.40;99.90;;;;;;5084608;28;20440;-86
2021/10/07 02:33:20;;;;;;;5.63;2.40;;;12.30;99.90;;;;;;5091608;28;20452;-86
2021/10/07 02:35:46;;;;;;;3.03;1.90;;;12.30;99.90;;;;;;5079842;28;21088;-85
2021/10/07 02:38:13;;;;;;;1.97;1.57;;;12.40;99.90;;;;;;5080624;28;20575;-85
2021/10/07 02:40:40;;;;;;;2.20;2.10;;;12.30;99.90;;;;;;5098705;28;20428;-85
2021/10/07 02:43:07;;;;;;;3.00;2.30;;;12.30;99.90;;;;;;5098691;28;20509;-86
2021/10/07 02:45:35;;;;;;;4.33;2.87;;;12.30;99.90;;;;;;5097110;28;20475;-85
2021/10/07 02:48:01;;;;;;;2.90;2.33;;;12.20;99.90;;;;;;5096995;28;20453;-87
2021/10/07 02:50:29;;;;;;;9.10;2.97;;;12.20;99.90;;;;;;5090512;28;20444;-85
2021/10/07 02:52:56;;;;;;;2.80;2.00;;;12.10;99.90;;;;;;5084009;28;20470;-85
2021/10/07 02:55:23;;;;;;;6.17;2.50;;;12.20;99.90;;;;;;5080555;28;20541;-85
2021/10/07 02:57:49;;;;;;;3.00;2.70;;;12.10;99.90;;;;;;5080677;28;20454;-85
2021/10/07 03:00:20;;;;;;;5.13;2.57;;;12.20;99.90;;;;;;5087919;28;20729;-85
2021/10/07 03:02:48;;;;;;;3.87;3.10;;;12.10;99.90;;;;;;5087380;28;20460;-86
2021/10/07 03:05:15;;;;;;;3.43;2.63;;;12.10;99.90;;;;;;5079650;28;21295;-86
2021/10/07 03:07:42;;;;;;;2.87;2.50;;;12.10;99.90;;;;;;5077671;28;20456;-86
2021/10/07 03:10:09;;;;;;;3.00;2.60;;;12.10;99.90;;;;;;5078319;28;20451;-85
2021/10/07 03:12:36;;;;;;;3.40;2.40;;;12.10;99.90;;;;;;5080725;28;20451;-85
2021/10/07 03:15:04;;;;;;;2.73;1.63;;;12.10;99.90;;;;;;5085811;28;20490;-86
2021/10/07 03:17:31;;;;;;;2.83;2.50;;;12.10;99.90;;;;;;5085163;28;20451;-85
2021/10/07 03:19:59;;;;;;;2.97;2.77;;;12.10;99.90;;;;;;5083147;28;20557;-85
2021/10/07 03:22:25;;;;;;;3.40;2.00;;;12.10;99.90;;;;;;5078255;28;20455;-85
2021/10/07 03:24:53;;;;;;;3.33;2.17;;;12.10;99.90;;;;;;5077262;28;20538;-85
2021/10/07 03:27:19;;;;;;;3.70;2.43;;;12.10;99.90;;;;;;5076757;28;20855;-86
2021/10/07 03:29:46;;;;;;;4.50;3.07;;;12.10;99.90;;;;;;5075911;28;20443;-85
2021/10/07 03:32:13;;;;;;;3.63;2.80;;;12.10;99.90;;;;;;5076157;28;20448;-86
2021/10/07 03:34:40;;;;;;;3.73;3.07;;;12.10;99.90;;;;;;5079787;28;20463;-85
2021/10/07 03:37:08;;;;;;;4.40;3.43;;;12.20;99.90;;;;;;5079255;28;20448;-85
2021/10/07 03:39:35;;;;;;;5.27;3.63;;;12.10;99.90;;;;;;5078601;28;20456;-85
2021/10/07 03:42:01;;;;;;;6.50;3.93;;;12.20;99.90;;;;;;5076562;28;20478;-86
2021/10/07 03:44:29;;;;;;;5.37;3.97;;;12.20;99.90;;;;;;5079965;28;20482;-85
2021/10/07 03:46:56;;;;;;;5.63;3.50;;;12.20;99.90;;;;;;5077524;28;20444;-87
2021/10/07 03:49:23;;;;;;;6.30;3.67;;;12.10;99.90;;;;;;5075889;28;20453;-85
2021/10/07 03:51:50;;;;;;;4.77;3.13;;;12.20;99.90;;;;;;5075323;28;20455;-85
2021/10/07 03:54:18;;;;;;;4.23;2.90;;;12.20;99.90;;;;;;5074069;28;20444;-85
2021/10/07 03:56:44;;;;;;;4.77;3.23;;;12.20;99.90;;;;;;5075266;28;20441;-85
2021/10/07 03:59:11;;;;;;;2.47;1.97;;;12.10;99.90;;;;;;5074983;28;20564;-84
2021/10/07 04:01:38;;;;;;;2.60;2.13;;;12.20;99.90;;;;;;5074569;28;20454;-85
2021/10/07 04:04:05;;;;;;;2.97;2.30;;;12.20;99.90;;;;;;5091718;28;20489;-84
2021/10/07 04:06:31;;;;;;;2.90;2.30;;;12.20;99.90;;;;;;5091782;28;20519;-84
2021/10/07 04:08:58;;;;;;;4.10;2.90;;;12.10;99.90;;;;;;5076898;28;20451;-85
2021/10/07 04:11:26;;;;;;;2.83;2.63;;;12.20;99.90;;;;;;5075969;28;20944;-85
2021/10/07 04:13:53;;;;;;;4.00;3.23;;;12.20;99.90;;;;;;5075732;28;20461;-85
2021/10/07 04:16:19;;;;;;;3.87;3.30;;;12.20;99.90;;;;;;5075158;28;20471;-85
2021/10/07 04:18:46;;;;;;;4.10;3.03;;;12.20;99.90;;;;;;5076815;28;20451;-85
2021/10/07 04:21:13;;;;;;;6.70;3.13;;;12.20;99.90;;;;;;5091935;28;20542;-85
2021/10/07 04:23:40;;;;;;;5.47;2.50;;;12.20;99.90;;;;;;5077416;28;20494;-85
2021/10/07 04:26:08;;;;;;;8.23;2.80;;;12.10;99.90;;;;;;5095874;28;20473;-86
2021/10/07 04:28:36;;;;;;;2.87;2.63;;;12.10;99.90;;;;;;5082448;28;20457;-85
2021/10/07 04:31:03;;;;;;;7.63;3.70;;;12.10;99.90;;;;;;5075495;28;20473;-85
2021/10/07 04:33:30;;;;;;;9.40;4.70;;;12.20;99.90;;;;;;5077054;28;20469;-86
2021/10/07 04:35:57;;;;;;;6.90;4.50;;;12.10;99.90;;;;;;5079660;28;20456;-86
2021/10/07 04:38:24;;;;;;;6.50;4.47;;;12.20;99.90;;;;;;5079569;28;20442;-85
2021/10/07 04:40:50;;;;;;;5.13;4.10;;;12.20;99.90;;;;;;5078052;28;20450;-86
2021/10/07 04:43:18;;;;;;;5.23;3.70;;;12.20;99.90;;;;;;5076139;28;20466;-87
2021/10/07 04:45:46;;;;;;;5.13;4.47;;;12.20;99.90;;;;;;5081976;28;20480;-86
2021/10/07 04:48:13;;;;;;;9.93;4.70;;;12.20;99.90;;;;;;5087437;28;20448;-86
2021/10/07 04:50:39;;;;;;;4.97;4.53;;;12.20;99.90;;;;;;5081348;28;20475;-87
2021/10/07 04:53:06;;;;;;;3.80;3.40;;;12.20;99.90;;;;;;5077204;28;20452;-86
2021/10/07 04:55:33;;;;;;;4.10;2.47;;;12.20;99.90;;;;;;5090746;28;20563;-86
2021/10/07 04:58:00;;;;;;;3.03;2.53;;;12.10;99.90;;;;;;5091565;28;20450;-87
2021/10/07 05:00:26;;;;;;;7.70;2.70;;;12.20;99.90;;;;;;5093247;28;20441;-87
2021/10/07 05:02:54;;;;;;;3.30;2.40;;;12.20;99.90;;;;;;5092079;28;20443;-85
2021/10/07 05:05:21;;;;;;;4.00;3.13;;;12.20;99.90;;;;;;5081648;28;20491;-85
2021/10/07 05:07:48;;;;;;;5.17;3.93;;;12.10;99.90;;;;;;5087366;28;20456;-86
2021/10/07 05:10:15;;;;;;;7.60;4.03;;;12.10;99.90;;;;;;5080817;28;20448;-85
2021/10/07 05:12:41;;;;;;;6.47;5.00;;;12.10;99.90;;;;;;5086545;28;20447;-85
2021/10/07 05:15:09;;;;;;;7.60;5.47;;;12.20;99.90;;;;;;5079631;28;20473;-86
2021/10/07 05:17:36;;;;;;;9.70;5.70;;;12.20;99.90;;;;;;5078177;28;20448;-85
2021/10/07 05:20:07;;;;;;;7.70;4.90;;;12.20;99.90;;;;;;5077790;28;20972;-86
2021/10/07 05:22:34;;;;;;;8.47;5.97;;;12.20;99.90;;;;;;5079345;28;20446;-86
2021/10/07 05:25:00;;;;;;;7.80;5.53;;;12.20;99.90;;;;;;5079410;28;20490;-86
2021/10/07 05:27:27;;;;;;;16.57;5.80;;;12.30;99.90;;;;;;5085377;28;20435;-86
2021/10/07 05:29:54;;;;;;;5.97;5.00;;;12.30;99.90;;;;;;5084901;28;21260;-86
2021/10/07 05:32:20;;;;;;;9.17;5.13;;;12.20;99.90;;;;;;5080461;28;20455;-86
2021/10/07 05:34:47;;;;;;;10.77;6.03;;;12.20;99.90;;;;;;5087669;28;20490;-86
2021/10/07 05:37:15;;;;;;;7.50;5.50;;;12.20;99.90;;;;;;5086964;28;20444;-87
2021/10/07 05:39:42;;;;;;;7.83;5.23;;;12.20;99.90;;;;;;5090711;28;20451;-87
2021/10/07 05:42:09;;;;;;;6.43;5.07;;;12.20;99.90;;;;;;5098054;28;20428;-87
2021/10/07 05:44:35;;;;;;;5.20;4.70;;;12.30;99.90;;;;;;5085312;28;20530;-87
2021/10/07 05:47:02;;;;;;;10.77;5.53;;;12.30;99.90;;;;;;5080106;28;20464;-87
2021/10/07 05:49:29;;;;;;;9.60;5.63;;;12.30;99.90;;;;;;5079414;28;20473;-87
2021/10/07 05:51:56;;;;;;;11.53;6.40;;;12.30;99.90;;;;;;5081786;28;20451;-87
2021/10/07 05:54:24;;;;;;;6.70;4.83;;;12.30;99.90;;;;;;5078759;28;20874;-87
2021/10/07 05:56:51;;;;;;;11.73;8.07;;;12.30;99.90;;;;;;5079997;28;20859;-86
2021/10/07 05:59:18;;;;;;;9.53;5.83;;;12.40;99.90;;;;;;5089178;28;20533;-87
2021/10/07 06:01:45;;;;;;;10.40;6.10;;;12.40;99.90;;;;;;5087540;28;20779;-87
2021/10/07 06:04:11;;;;;;;11.93;6.57;;;12.40;99.90;;;;;;5079754;28;20480;-87
2021/10/07 06:06:38;;;;;;;9.93;5.90;;;12.50;99.90;;;;;;5077894;28;20463;-86
2021/10/07 06:09:19;;;;;;;6.03;5.47;;;12.50;99.90;;;;;;5082552;28;20535;-86
2021/10/07 06:11:47;;;;;;;6.53;5.80;;;12.50;99.90;;;;;;5099820;28;20439;-87
2021/10/07 06:14:14;;;;;;;5.97;5.10;;;12.50;99.90;;;;;;5089719;28;20507;-87
2021/10/07 06:16:41;;;;;;;9.20;7.27;;;12.50;99.90;;;;;;5072692;22;20494;-87
2021/10/07 06:19:10;;;;;;;9.50;5.90;;;12.50;99.90;;;;;;5054870;28;20444;-90
2021/10/07 06:21:37;;;;;;;7.97;5.80;;;12.60;99.90;;;;;;5046415;28;20483;-89
2021/10/07 06:24:04;;;;;;;11.10;7.53;;;12.60;99.90;;;;;;5034529;28;20489;-89
2021/10/07 06:26:32;;;;;;;7.10;5.37;;;12.70;99.90;;;;;;5035994;28;20464;-89
2021/10/07 06:29:00;;;;;;;15.93;7.23;;;12.70;99.90;;;;;;5034824;28;20456;-89
2021/10/07 06:31:27;;;;;;;12.10;6.33;;;12.70;99.90;;;;;;5034444;28;20455;-89
2021/10/07 06:33:53;;;;;;;10.07;6.90;;;12.70;99.90;;;;;;5034672;28;20457;-89
2021/10/07 06:36:20;;;;;;;7.00;5.83;;;12.80;99.90;;;;;;5034825;28;20517;-88
2021/10/07 06:38:47;;;;;;;6.77;5.50;;;12.80;99.90;;;;;;5035061;28;20465;-89
2021/10/07 06:41:14;;;;;;;8.70;6.60;;;12.80;99.90;;;;;;5034962;28;20431;-88
2021/10/07 06:43:41;;;;;;;8.80;5.83;;;12.90;99.90;;;;;;5035250;28;20448;-88
2021/10/07 06:46:09;;;;;;;9.73;5.97;;;12.80;99.90;;;;;;5035890;28;20476;-88
2021/10/07 06:48:36;;;;;;;6.07;5.47;;;12.80;99.90;;;;;;5056689;28;20451;-88
2021/10/07 06:51:09;;;;;;;8.73;5.20;;;12.80;99.90;;;;;;5059854;28;20441;-90
2021/10/07 06:53:38;;;;;;;7.83;5.47;;;12.70;99.90;;;;;;5059356;28;20493;-89
2021/10/07 06:56:06;;;;;;;6.70;5.80;;;12.90;99.90;;;;;;5058901;28;20459;-90
2021/10/07 06:58:36;;;;;;;13.60;7.30;;;13.00;99.90;;;;;;5057231;28;20452;-89
2021/10/07 07:01:03;;;;;;;10.07;6.50;;;13.00;99.90;;;;;;5042623;28;20433;-88
2021/10/07 07:03:31;;;;;;;12.40;6.47;;;13.10;99.90;;;;;;5058175;28;20435;-88
2021/10/07 07:05:58;;;;;;;6.57;5.90;;;13.20;99.90;;;;;;5058686;28;20555;-89
2021/10/07 07:08:25;;;;;;;10.50;6.37;;;13.20;99.90;;;;;;5058354;28;20458;-89
2021/10/07 07:10:53;;;;;;;7.60;5.33;;;13.30;99.90;;;;;;5057542;28;20443;-89
2021/10/07 07:13:20;;;;;;;9.30;4.90;;;13.40;99.90;;;;;;5048448;28;20533;-89
2021/10/07 07:15:46;;;;;;;9.57;5.80;;;13.50;99.90;;;;;;5051452;28;20456;-89
2021/10/07 07:18:13;;;;;;;8.00;5.70;;;13.50;99.90;;;;;;5037608;28;20456;-88
2021/10/07 07:20:42;;;;;;;6.60;5.27;;;13.60;99.90;;;;;;5041619;28;20451;-88
2021/10/07 07:23:10;;;;;;;7.50;5.73;;;13.60;99.90;;;;;;5036186;28;20452;-88
2021/10/07 07:25:37;;;;;;;7.60;6.00;;;13.40;99.90;;;;;;5035039;28;20517;-88
2021/10/07 07:28:04;;;;;;;8.97;5.90;;;13.40;99.90;;;;;;5035196;28;20474;-86
2021/10/07 07:30:31;;;;;;;7.33;6.00;;;13.50;99.90;;;;;;5035367;28;20450;-89
2021/10/07 07:32:57;;;;;;;8.33;6.40;;;13.50;99.90;;;;;;5034855;28;20445;-89
2021/10/07 07:35:29;;;;;;;6.50;5.80;;;13.60;99.90;;;;;;5045325;28;20446;-90
2021/10/07 07:37:57;;;;;;;8.10;5.97;;;13.70;99.90;;;;;;5038207;28;20457;-89
2021/10/07 07:40:24;;;;;;;6.63;6.03;;;13.70;99.90;;;;;;5016534;28;20462;-90
2021/10/07 07:42:51;;;;;;;7.97;7.17;;;13.80;99.90;;;;;;5015011;28;20831;-89
2021/10/07 07:45:18;;;;;;;6.93;6.23;;;13.80;99.90;;;;;;5013830;28;21006;-88
2021/10/07 07:47:45;;;;;;;8.50;5.87;;;13.90;99.90;;;;;;5026265;28;20460;-89
2021/10/07 07:50:18;;;;;;;7.60;7.00;;;13.90;99.90;;;;;;5038520;28;20440;-88
2021/10/07 07:52:48;;;;;;;7.00;6.40;;;13.90;99.90;;;;;;5063371;28;20439;-88
2021/10/07 07:55:18;;;;;;;11.57;6.40;;;14.00;99.90;;;;;;5061905;28;20435;-85
2021/10/07 07:57:45;;;;;;;9.73;7.80;;;14.00;99.90;;;;;;5044728;28;20480;-87
2021/10/07 08:00:13;;;;;;;7.27;6.73;;;14.10;99.90;;;;;;5042762;28;20443;-86
2021/10/07 08:02:40;;;;;;;8.43;6.70;;;14.10;99.90;;;;;;5039502;28;20490;-87
2021/10/07 08:05:07;;;;;;;9.03;6.77;;;14.20;99.90;;;;;;5048437;28;20504;-87
2021/10/07 08:07:42;;;;;;;9.97;8.20;;;14.30;99.90;;;;;;5047182;28;20538;-86
2021/10/07 08:10:12;;;;;;;10.43;8.33;;;14.30;99.90;;;;;;5056409;28;20449;-86
2021/10/07 08:12:41;;;;;;;8.47;7.67;;;14.40;99.90;;;;;;5042440;28;20460;-87
2021/10/07 08:15:09;;;;;;;8.80;7.90;;;14.50;99.90;;;;;;5042018;28;20449;-87
2021/10/07 08:17:36;;;;;;;10.30;9.37;;;14.50;99.90;;;;;;5041358;28;20523;-87
2021/10/07 08:20:04;;;;;;;9.97;9.00;;;14.50;99.90;;;;;;5042027;28;20479;-86
2021/10/07 08:22:31;;;;;;;9.43;8.63;;;14.60;99.90;;;;;;5043514;28;20452;-88
2021/10/07 08:25:01;;;;;;;10.03;9.07;;;14.60;99.90;;;;;;5040827;28;20495;-88
2021/10/07 08:32:41;;;;;;;10.87;7.90;;;15.40;99.90;;;;;;1371661;26;20476;-87
2021/10/07 08:35:09;;;;;;;9.50;8.60;;;15.80;99.90;;;;;;5055154;28;20445;-87
2021/10/07 08:37:37;;;;;;;8.70;8.00;;;16.20;99.90;;;;;;5056573;28;20677;-87
2021/10/07 08:40:10;;;;;;;9.97;9.10;;;16.80;99.90;;;;;;5057483;28;20460;-87
2021/10/07 08:42:37;;;;;;;8.67;7.93;;;17.30;99.90;;;;;;5059189;28;20448;-87
2021/10/07 08:45:05;;;;;;;9.80;8.93;;;17.50;99.90;;;;;;5070627;28;20470;-87
2021/10/07 08:47:32;;;;;;;12.10;9.73;;;17.80;99.90;;;;;;5068563;28;20465;-87
2021/10/07 08:50:00;;;;;;;10.07;9.33;;;18.10;99.10;;;;;;5062869;28;20445;-79
2021/10/07 08:52:27;;;;;;;10.10;9.20;;;18.10;98.20;;;;;;5066953;28;20447;-80
2021/10/07 08:54:54;;;;;;;9.50;8.60;;;18.00;98.00;;;;;;5062430;28;20448;-79
2021/10/07 08:57:21;;;;;;;10.17;9.37;;;17.90;98.10;;;;;;5059348;28;20456;-79
2021/10/07 08:59:48;;;;;;;10.07;9.07;;;17.90;97.80;;;;;;5065920;28;20444;-77
2021/10/07 09:02:25;;;;;;;9.83;8.83;;;18.20;97.50;;;;;;5065075;28;20432;-79
2021/10/07 09:04:53;;;;;;;10.43;9.40;;;18.60;97.10;;;;;;5061413;28;20478;-82
2021/10/07 09:07:22;;;;;;;10.83;9.93;;;18.80;96.40;;;;;;5056346;28;20894;-87
2021/10/07 09:09:54;;;;;;;10.40;9.50;;;18.50;95.70;;;;;;5056086;28;20457;-87
2021/10/07 09:12:28;;;;;;;12.43;11.30;;;18.30;95.60;;;;;;5064240;28;20449;-86
2021/10/07 09:15:02;;;;;;;11.10;10.20;;;18.10;95.90;;;;;;5079433;28;20827;-88
2021/10/07 09:17:32;;;;;;;11.23;10.20;;;17.70;96.40;;;;;;5076566;28;20440;-86
2021/10/07 09:19:59;;;;;;;13.93;11.03;;;17.40;96.90;;;;;;5075549;28;20456;-88
2021/10/07 09:22:30;;;;;;;12.03;10.40;;;17.10;97.50;;;;;;5057648;28;20445;-88
2021/10/07 09:25:04;;;;;;;10.27;8.97;;;16.90;98.10;;;;;;5053854;28;20501;-87
2021/10/07 09:27:34;;;;;;;11.77;10.70;;;16.70;98.20;;;;;;5055899;28;20459;-88
2021/10/07 09:30:08;;;;;;;10.90;10.00;;;16.50;98.60;;;;;;5055835;28;20437;-88
2021/10/07 09:32:44;;;;;;;11.37;10.17;;;16.50;99.10;;;;;;5059134;28;20473;-88
2021/10/07 09:35:15;;;;;;;10.43;9.27;;;16.30;99.40;;;;;;5057717;28;20443;-88
2021/10/07 09:37:48;;;;;;;9.67;8.77;;;15.60;99.90;;;;;;5058910;28;20478;-88
2021/10/07 09:40:18;;;;;;;12.23;8.77;;;15.30;99.90;;;;;;5055149;28;20523;-88
2021/10/07 09:42:47;;;;;;;11.03;9.97;;;15.40;99.90;;;;;;5059671;28;20448;-88
2021/10/07 09:45:23;;;;;;;11.70;9.60;;;15.50;99.90;;;;;;5057915;28;20855;-86
2021/10/07 09:48:00;;;;;;;11.50;8.87;;;15.80;99.90;;;;;;5071311;28;20459;-86
2021/10/07 09:50:34;;;;;;;10.73;9.67;;;16.10;99.90;;;;;;5055906;28;20437;-87
2021/10/07 09:53:07;;;;;;;12.30;10.83;;;16.30;99.90;;;;;;5068393;28;20496;-87
2021/10/07 09:55:38;;;;;;;8.10;7.40;;;16.40;99.90;;;;;;5060966;28;20447;-86
2021/10/07 09:58:12;;;;;;;10.33;8.63;;;16.70;99.40;;;;;;5065720;28;20809;-87
2021/10/07 10:00:45;;;;;;;10.20;8.00;;;16.90;98.70;;;;;;5070358;28;20458;-86
2021/10/07 10:03:22;;;;;;;9.37;8.47;;;16.90;98.30;;;;;;5065704;28;20451;-86
2021/10/07 10:05:49;;;;;;;9.70;8.03;;;16.90;98.30;;;;;;5077015;28;20481;-86
2021/10/07 10:08:19;;;;;;;10.70;8.50;;;16.80;97.70;;;;;;5079712;28;20455;-89
2021/10/07 10:10:48;;;;;;;8.80;8.03;;;16.60;98.10;;;;;;5063768;28;20966;-87
2021/10/07 10:13:17;;;;;;;8.47;7.77;;;16.50;98.40;;;;;;5059939;28;20451;-86
2021/10/07 10:15:44;;;;;;;8.03;7.23;;;16.50;98.50;;;;;;5067453;28;20437;-87
2021/10/07 10:18:12;;;;;;;10.77;7.90;;;16.40;98.40;;;;;;5060943;28;20932;-88
2021/10/07 10:20:43;;;;;;;10.57;9.53;;;16.20;98.70;;;;;;5072266;28;20447;-86
2021/10/07 10:23:12;;;;;;;8.13;7.20;;;16.10;99.10;;;;;;5079531;28;20443;-86
2021/10/07 10:25:55;;;;;;;8.60;7.80;;;16.20;99.10;;;;;;5068121;28;20476;-87
2021/10/07 10:28:47;;;;;;;9.60;6.47;;;16.30;99.10;;;;;;5071049;28;20447;-86
2021/10/07 10:31:15;;;;;;;8.53;7.70;;;16.60;98.40;;;;;;5079811;28;20444;-86
2021/10/07 10:33:44;;;;;;;7.27;6.57;;;16.90;98.10;;;;;;5064138;28;20461;-86
2021/10/07 10:36:32;;;;;;;8.10;7.37;;;17.10;98.00;;;;;;5053025;28;20500;-86
2021/10/07 10:39:10;;;;;;;9.37;8.60;;;17.30;97.90;;;;;;5075055;28;20449;-86
2021/10/07 10:42:00;;;;;;;8.97;8.10;;;17.40;98.00;;;;;;5087018;28;20465;-85
2021/10/07 10:44:32;;;;;;;8.30;7.50;;;17.50;98.00;;;;;;5071769;28;20488;-87
2021/10/07 10:47:00;;;;;;;8.17;7.53;;;17.50;98.10;;;;;;5074126;28;20484;-86
2021/10/07 10:49:36;;;;;;;8.97;7.93;;;17.70;97.50;;;;;;5081570;28;20445;-86
2021/10/07 10:52:12;;;;;;;7.87;7.17;;;17.90;97.10;;;;;;5083973;28;20516;-89
2021/10/07 10:54:44;;;;;;;6.70;6.07;;;18.30;96.60;;;;;;5087593;28;20439;-85
2021/10/07 10:57:26;;;;;;;6.03;5.43;;;18.50;94.70;;;;;;5086585;28;20467;-85
2021/10/07 11:00:13;;;;;;;6.73;5.50;;;18.40;94.20;;;;;;5075794;28;20455;-84
2021/10/07 11:02:41;;;;;;;5.87;5.37;;;18.60;93.80;;;;;;5050292;28;20867;-84
2021/10/07 11:05:20;;;;;;;6.10;5.70;;;19.00;93.30;;;;;;5055789;28;20460;-85
2021/10/07 11:07:49;;;;;;;7.60;7.03;;;19.20;92.90;;;;;;5074553;28;20459;-86
2021/10/07 11:10:27;;;;;;;6.03;5.53;;;19.50;92.50;;;;;;5073295;28;20945;-86
2021/10/07 11:12:57;;;;;;;7.57;6.07;;;19.50;92.10;;;;;;5072641;28;20513;-85
2021/10/07 11:15:30;;;;;;;7.07;6.20;;;19.40;92.40;;;;;;5068406;28;20442;-85
2021/10/07 11:17:58;;;;;;;11.70;10.73;;;19.30;92.80;;;;;;5071935;28;20473;-86
2021/10/07 11:20:27;;;;;;;8.90;6.60;;;19.10;92.70;;;;;;5059684;28;20429;-85
2021/10/07 11:23:07;;;;;;;7.63;6.23;;;18.10;93.50;;;;;;5058666;28;20453;-85
2021/10/07 11:25:35;;;;;;;6.00;5.60;;;17.50;94.80;;;;;;5056973;28;20499;-87
2021/10/07 11:28:04;;;;;;;7.10;5.67;;;17.50;95.30;;;;;;5077594;28;20961;-80
2021/10/07 11:30:34;;;;;;;6.90;6.23;;;17.50;95.10;;;;;;5077167;28;20427;-80
2021/10/07 11:33:02;;;;;;;5.80;5.40;;;17.30;95.30;;;;;;5060538;28;20544;-79
2021/10/07 11:35:30;;;;;;;7.17;6.30;;;17.20;95.20;;;;;;5058996;28;20445;-80
2021/10/07 11:38:02;;;;;;;8.80;6.00;;;17.20;96.00;;;;;;5037704;28;21011;-79
2021/10/07 11:40:32;;;;;;;6.63;6.03;;;17.00;95.90;;;;;;5043359;28;20448;-79
2021/10/07 11:43:02;;;;;;;7.23;5.90;;;16.90;96.30;;;;;;5038353;28;20456;-79
2021/10/07 11:45:31;;;;;;;6.67;6.07;;;16.90;96.00;;;;;;5045463;28;20461;-79
2021/10/07 11:48:00;;;;;;;4.93;4.53;;;16.80;96.00;;;;;;5084928;28;20467;-80
2021/10/07 11:50:27;;;;;;;6.40;4.70;;;16.90;95.60;;;;;;5081610;28;20454;-80
2021/10/07 11:53:00;;;;;;;6.40;5.40;;;17.10;95.90;;;;;;5088290;28;20432;-86
2021/10/07 11:55:50;;;;;;;5.57;5.00;;;17.30;95.70;;;;;;5078495;28;20827;-87
2021/10/07 11:58:22;;;;;;;5.00;4.60;;;17.50;94.70;;;;;;5057489;28;20440;-87
2021/10/07 12:00:56;;;;;;;4.17;3.87;;;17.40;94.50;;;;;;5079479;28;20447;-87
2021/10/07 12:03:26;;;;;;;4.80;4.40;;;17.30;94.40;;;;;;5074813;28;20445;-87
2021/10/07 12:06:01;;;;;;;6.00;5.40;;;17.50;94.20;;;;;;5074569;28;20927;-87
2021/10/07 12:08:36;;;;;;;4.67;4.23;;;18.10;94.10;;;;;;5073523;28;20448;-87
2021/10/07 12:11:05;;;;;;;4.63;4.23;;;18.90;92.70;;;;;;5076673;28;20459;-87
2021/10/07 12:13:39;;;;;;;5.27;4.40;;;19.50;92.00;;;;;;5069989;28;20450;-87
2021/10/07 12:16:13;;;;;;;6.30;5.80;;;19.80;91.20;;;;;;5056191;28;20474;-88
2021/10/07 12:18:42;;;;;;;4.40;4.10;;;19.60;90.80;;;;;;5061076;28;20471;-88
2021/10/07 12:21:13;;;;;;;4.67;3.90;;;19.50;90.80;;;;;;5096370;28;20700;-88
2021/10/07 12:26:46;;;;;;;4.37;3.97;;;19.60;90.50;;;;;;5105101;28;20521;-89
2021/10/07 12:29:23;;;;;;;5.63;4.50;;;19.10;90.40;;;;;;5096748;28;20431;-88
2021/10/07 12:31:57;;;;;;;5.50;5.00;;;19.10;91.40;;;;;;5075897;28;20908;-89
2021/10/07 12:34:33;;;;;;;4.97;4.47;;;19.30;91.50;;;;;;5072859;28;20543;-89
2021/10/07 12:37:05;;;;;;;5.87;5.27;;;19.60;91.40;;;;;;5073252;28;20473;-89
2021/10/07 12:39:34;;;;;;;5.53;5.03;;;20.20;90.80;;;;;;5115575;22;20495;-84
2021/10/07 12:42:04;;;;;;;5.40;4.90;;;20.20;90.30;;;;;;5097112;28;20445;-83
2021/10/07 12:44:33;;;;;;;6.70;6.10;;;20.20;90.20;;;;;;5100357;28;20476;-80
2021/10/07 12:47:04;;;;;;;6.60;6.00;;;19.90;90.20;;;;;;5090315;28;20551;-83
2021/10/07 12:49:36;;;;;;;6.47;6.00;;;19.60;90.70;;;;;;5096306;28;20543;-81
2021/10/07 12:52:12;;;;;;;6.17;5.57;;;19.10;91.40;;;;;;5092086;28;20436;-83
2021/10/07 12:54:39;;;;;;;5.10;4.60;;;18.50;92.00;;;;;;5079576;28;20445;-83
2021/10/07 12:57:05;;;;;;;5.50;5.00;;;18.20;92.80;;;;;;5084550;28;20489;-82
2021/10/07 12:59:56;;;;;;;4.63;4.23;;;18.10;93.20;;;;;;5101566;28;20467;-83
2021/10/07 13:02:31;;;;;;;4.87;4.40;;;18.00;93.20;;;;;;5088713;28;20460;-83
2021/10/07 13:04:58;;;;;;;7.20;4.03;;;18.00;93.50;;;;;;5075617;28;20492;-82